Time;durP1;ratioP1;P1;durP2;ratioP2;P2;SDS_P1;SDS_P2;PMS_P1;PMS_P2;Temp;Humidity;BMP_temperature;BMP_pressure;BME280_temperature;BME280_humidity;BME280_pressure;Samples;Min_cycle;Max_cycle;Signal;HPM_P1;HPM_P2
2022/04/24 00:01:32;;;;;;;20.13;10.02;;;6.80;99.90;;;;;;4994035;28;20030;-71
2022/04/24 00:03:58;;;;;;;18.27;10.15;;;6.80;99.90;;;;;;4997394;28;20052;-71
2022/04/24 00:06:24;;;;;;;15.15;9.85;;;6.70;99.90;;;;;;4997860;28;20497;-71
2022/04/24 00:08:50;;;;;;;21.05;11.00;;;6.70;99.90;;;;;;4997668;28;20065;-71
2022/04/24 00:11:16;;;;;;;19.77;10.25;;;6.60;99.90;;;;;;4997653;28;20068;-71
2022/04/24 00:13:42;;;;;;;25.92;12.65;;;6.60;99.90;;;;;;4997595;28;20532;-71
2022/04/24 00:16:10;;;;;;;16.08;11.13;;;6.60;99.90;;;;;;4997768;28;20105;-71
2022/04/24 00:18:38;;;;;;;19.08;10.50;;;6.60;99.90;;;;;;5012005;28;20034;-71
2022/04/24 00:21:04;;;;;;;20.02;10.48;;;6.60;99.90;;;;;;4997650;28;20041;-71
2022/04/24 00:23:31;;;;;;;18.45;10.90;;;6.70;99.90;;;;;;4997356;28;20359;-71
2022/04/24 00:25:57;;;;;;;26.58;11.82;;;6.70;99.90;;;;;;4997659;28;20050;-71
2022/04/24 00:28:23;;;;;;;19.58;12.40;;;6.60;99.90;;;;;;4997841;28;20054;-71
2022/04/24 00:30:48;;;;;;;21.52;11.85;;;6.60;99.90;;;;;;4997675;28;20029;-71
2022/04/24 00:33:14;;;;;;;21.75;11.02;;;6.60;99.90;;;;;;4996967;28;20041;-71
2022/04/24 00:35:39;;;;;;;18.15;9.95;;;6.60;99.90;;;;;;4997190;28;20046;-71
2022/04/24 00:38:05;;;;;;;20.77;11.88;;;6.50;99.90;;;;;;4997169;28;20069;-71
2022/04/24 00:40:30;;;;;;;18.73;10.45;;;6.50;99.90;;;;;;4996985;28;20034;-71
2022/04/24 00:42:56;;;;;;;18.02;10.63;;;6.40;99.90;;;;;;4996390;28;20022;-71
2022/04/24 00:45:22;;;;;;;17.25;11.00;;;6.30;99.90;;;;;;4997458;28;20031;-71
2022/04/24 00:47:48;;;;;;;22.02;11.23;;;6.30;99.90;;;;;;4997032;28;20394;-71
2022/04/24 00:50:14;;;;;;;20.33;9.88;;;6.20;99.90;;;;;;4996545;28;20026;-71
2022/04/24 00:52:39;;;;;;;16.33;8.98;;;6.10;99.90;;;;;;4997270;28;20450;-71
2022/04/24 00:55:06;;;;;;;22.27;9.73;;;6.00;99.90;;;;;;4996776;28;20023;-70
2022/04/24 00:57:32;;;;;;;22.33;8.73;;;6.00;99.90;;;;;;4996689;28;20026;-70
2022/04/24 00:59:57;;;;;;;16.13;8.48;;;6.00;99.90;;;;;;4996006;28;20474;-71
2022/04/24 01:02:23;;;;;;;15.75;9.15;;;5.90;99.90;;;;;;4996511;28;20037;-70
2022/04/24 01:04:49;;;;;;;20.45;8.15;;;5.90;99.90;;;;;;4996790;28;20031;-70
2022/04/24 01:07:15;;;;;;;16.17;7.88;;;5.90;99.90;;;;;;4997021;28;20045;-71
2022/04/24 01:09:40;;;;;;;20.20;7.35;;;5.80;99.90;;;;;;4996455;28;20493;-70
2022/04/24 01:12:07;;;;;;;17.25;7.82;;;5.80;99.90;;;;;;4995868;28;20497;-71
2022/04/24 01:14:34;;;;;;;13.27;6.97;;;5.70;99.90;;;;;;4996365;28;20367;-70
2022/04/24 01:17:01;;;;;;;14.95;7.05;;;5.70;99.90;;;;;;4996312;28;20031;-70
2022/04/24 01:19:27;;;;;;;15.45;7.57;;;5.60;99.90;;;;;;4997136;28;20058;-70
2022/04/24 01:21:54;;;;;;;14.65;7.47;;;5.60;99.90;;;;;;4996315;28;20019;-70
2022/04/24 01:24:25;;;;;;;13.20;6.65;;;5.60;99.90;;;;;;4995642;28;20014;-70
2022/04/24 01:26:51;;;;;;;17.52;6.85;;;5.50;99.90;;;;;;4996275;28;20030;-70
2022/04/24 01:29:17;;;;;;;13.60;6.47;;;5.50;99.90;;;;;;4996083;28;20038;-70
2022/04/24 01:31:44;;;;;;;11.93;7.75;;;5.40;99.90;;;;;;4996505;28;20033;-70
2022/04/24 01:34:10;;;;;;;11.65;7.30;;;5.50;99.90;;;;;;4995902;28;20034;-70
2022/04/24 01:36:36;;;;;;;12.60;7.18;;;5.40;99.90;;;;;;4995525;28;20030;-70
2022/04/24 01:39:02;;;;;;;14.52;7.13;;;5.40;99.90;;;;;;4996178;28;20022;-70
2022/04/24 01:41:28;;;;;;;14.73;6.38;;;5.40;99.90;;;;;;4995936;28;20141;-70
2022/04/24 01:43:54;;;;;;;16.50;6.75;;;5.40;99.90;;;;;;4995792;28;20475;-70
2022/04/24 01:46:19;;;;;;;9.65;6.07;;;5.50;99.90;;;;;;4995468;28;20026;-70
2022/04/24 01:48:45;;;;;;;27.60;7.18;;;5.50;99.90;;;;;;4995802;28;20105;-70
2022/04/24 01:51:11;;;;;;;12.02;6.78;;;5.50;99.90;;;;;;4996274;28;20022;-70
2022/04/24 01:53:37;;;;;;;10.65;6.93;;;5.50;99.90;;;;;;4995549;28;20018;-70
2022/04/24 01:56:07;;;;;;;16.08;7.45;;;5.40;99.90;;;;;;4995820;28;20026;-70
2022/04/24 01:58:33;;;;;;;28.23;7.75;;;5.40;99.90;;;;;;4995535;28;20029;-71
2022/04/24 02:00:59;;;;;;;15.85;6.18;;;5.40;99.90;;;;;;4995981;28;20022;-71
2022/04/24 02:03:26;;;;;;;13.05;6.45;;;5.40;99.90;;;;;;4995388;28;20044;-71
2022/04/24 02:05:52;;;;;;;11.65;5.97;;;5.30;99.90;;;;;;5010436;28;20390;-71
2022/04/24 02:08:18;;;;;;;20.02;7.13;;;5.20;99.90;;;;;;4994949;28;20021;-70
2022/04/24 02:10:43;;;;;;;12.35;5.85;;;5.20;99.90;;;;;;4995775;28;20490;-71
2022/04/24 02:13:09;;;;;;;14.55;7.72;;;5.20;99.90;;;;;;5004102;28;20038;-71
2022/04/24 02:15:35;;;;;;;16.27;7.45;;;5.20;99.90;;;;;;4995453;28;20027;-71
2022/04/24 02:18:01;;;;;;;13.10;6.70;;;5.20;99.90;;;;;;4999682;28;20037;-71
2022/04/24 02:20:30;;;;;;;11.57;6.80;;;5.10;99.90;;;;;;5014600;28;20034;-73
2022/04/24 02:22:57;;;;;;;9.88;6.57;;;5.10;99.90;;;;;;5010178;28;20048;-71
2022/04/24 02:25:24;;;;;;;10.65;6.43;;;5.00;99.90;;;;;;5005317;28;20019;-71
2022/04/24 02:27:50;;;;;;;11.75;6.95;;;4.90;99.90;;;;;;5014190;28;20481;-70
2022/04/24 02:30:16;;;;;;;15.40;6.93;;;4.90;99.90;;;;;;5011569;28;20121;-71
2022/04/24 02:32:41;;;;;;;14.52;6.90;;;4.90;99.90;;;;;;4995196;28;20125;-71
2022/04/24 02:35:07;;;;;;;10.93;6.55;;;4.90;99.90;;;;;;4995053;28;20035;-71
2022/04/24 02:37:32;;;;;;;19.13;7.45;;;4.90;99.90;;;;;;4994978;28;20022;-71
2022/04/24 02:40:01;;;;;;;14.05;6.28;;;4.80;99.90;;;;;;4994319;28;20045;-71
2022/04/24 02:42:26;;;;;;;19.90;8.23;;;4.80;99.90;;;;;;4994756;28;20478;-71
2022/04/24 02:44:52;;;;;;;10.18;6.90;;;4.80;99.90;;;;;;4995092;28;20088;-71
2022/04/24 02:47:17;;;;;;;18.50;8.30;;;4.80;99.90;;;;;;4994792;28;20034;-71
2022/04/24 02:49:43;;;;;;;25.20;8.70;;;4.80;99.90;;;;;;4994655;28;20022;-70
2022/04/24 02:52:08;;;;;;;15.60;7.20;;;4.90;99.90;;;;;;4994228;28;20149;-71
2022/04/24 02:54:34;;;;;;;17.17;8.07;;;4.80;99.90;;;;;;4995091;28;20097;-71
2022/04/24 02:57:00;;;;;;;14.27;7.72;;;4.90;99.90;;;;;;5009606;28;20034;-71
2022/04/24 02:59:26;;;;;;;18.65;8.10;;;4.80;99.90;;;;;;4994470;28;20022;-71
2022/04/24 03:01:52;;;;;;;20.50;9.07;;;4.80;99.90;;;;;;4994160;28;20023;-71
2022/04/24 03:04:19;;;;;;;19.42;8.57;;;4.80;99.90;;;;;;4994506;28;20401;-71
2022/04/24 03:06:45;;;;;;;16.88;8.88;;;4.80;99.90;;;;;;4994458;28;20014;-71
2022/04/24 03:09:11;;;;;;;19.20;9.70;;;4.80;99.90;;;;;;4994418;28;20034;-70
2022/04/24 03:11:36;;;;;;;12.65;8.18;;;4.80;99.90;;;;;;4993986;28;20105;-71
2022/04/24 03:14:02;;;;;;;15.52;8.75;;;4.70;99.90;;;;;;4994539;28;20077;-71
2022/04/24 03:16:28;;;;;;;17.27;8.43;;;4.70;99.90;;;;;;4994642;28;20657;-71
2022/04/24 03:18:53;;;;;;;19.00;8.18;;;4.60;99.90;;;;;;4994344;28;20040;-71
2022/04/24 03:21:19;;;;;;;15.20;8.15;;;4.60;99.90;;;;;;4993858;28;20049;-71
2022/04/24 03:23:44;;;;;;;21.58;8.70;;;4.50;99.90;;;;;;4994212;28;20090;-71
2022/04/24 03:26:13;;;;;;;24.67;8.75;;;4.50;99.90;;;;;;4994340;28;20032;-71
2022/04/24 03:28:40;;;;;;;15.02;7.70;;;4.40;99.90;;;;;;4993914;28;20081;-71
2022/04/24 03:31:06;;;;;;;15.23;7.93;;;4.40;99.90;;;;;;4994268;28;20018;-71
2022/04/24 03:33:31;;;;;;;19.83;8.95;;;4.30;99.90;;;;;;4994031;28;20076;-71
2022/04/24 03:35:57;;;;;;;16.50;9.07;;;4.40;99.90;;;;;;4994266;28;20029;-70
2022/04/24 03:38:23;;;;;;;19.02;8.05;;;4.40;99.90;;;;;;4997409;28;20018;-70
2022/04/24 03:40:48;;;;;;;15.00;8.25;;;4.40;99.90;;;;;;4998015;28;20036;-70
2022/04/24 03:43:14;;;;;;;15.02;8.38;;;4.40;99.90;;;;;;4997673;28;20023;-71
2022/04/24 03:45:40;;;;;;;18.10;8.57;;;4.40;99.90;;;;;;4998026;28;20019;-71
2022/04/24 03:48:05;;;;;;;16.23;8.43;;;4.50;99.90;;;;;;4998375;28;20018;-71
2022/04/24 03:50:31;;;;;;;14.50;8.77;;;4.60;99.90;;;;;;4997990;28;20030;-71
2022/04/24 03:52:56;;;;;;;18.17;8.57;;;4.70;99.90;;;;;;4998090;28;20093;-70
2022/04/24 03:55:22;;;;;;;18.70;8.05;;;4.80;99.90;;;;;;4997534;28;20026;-70
2022/04/24 03:57:48;;;;;;;17.38;8.05;;;4.80;99.90;;;;;;4998419;28;20038;-70
2022/04/24 04:00:14;;;;;;;17.00;7.78;;;4.80;99.90;;;;;;4997736;28;20034;-70
2022/04/24 04:02:44;;;;;;;21.38;8.07;;;4.80;99.90;;;;;;4997939;28;20431;-71
2022/04/24 04:05:11;;;;;;;21.42;8.20;;;4.80;99.90;;;;;;4997994;28;20019;-70
2022/04/24 04:07:36;;;;;;;18.77;8.77;;;4.80;99.90;;;;;;4997864;28;20025;-71
2022/04/24 04:10:03;;;;;;;18.42;7.75;;;4.90;99.90;;;;;;4997473;28;20034;-70
2022/04/24 04:12:28;;;;;;;16.20;7.93;;;4.90;99.90;;;;;;4997616;28;20034;-71
2022/04/24 04:14:54;;;;;;;17.17;8.93;;;4.90;99.90;;;;;;4997570;28;20068;-70
2022/04/24 04:17:19;;;;;;;17.45;7.63;;;4.90;99.90;;;;;;4997450;28;20081;-70
2022/04/24 04:19:45;;;;;;;18.52;8.18;;;5.00;99.90;;;;;;4998186;28;20042;-70
2022/04/24 04:22:10;;;;;;;17.95;7.72;;;5.10;99.90;;;;;;4997416;28;20034;-71
2022/04/24 04:24:36;;;;;;;17.17;7.95;;;5.10;99.90;;;;;;4998601;28;20026;-71
2022/04/24 04:27:02;;;;;;;13.65;6.97;;;5.10;99.90;;;;;;5013433;28;20449;-70
2022/04/24 04:29:28;;;;;;;13.10;7.22;;;5.00;99.90;;;;;;5011968;28;20034;-71
2022/04/24 04:31:53;;;;;;;22.95;7.57;;;5.10;99.90;;;;;;4997240;28;20030;-71
2022/04/24 04:34:19;;;;;;;17.95;7.28;;;5.20;99.90;;;;;;4996525;28;20044;-71
2022/04/24 04:36:45;;;;;;;12.73;7.78;;;5.30;99.90;;;;;;4997357;28;20391;-71
2022/04/24 04:39:10;;;;;;;17.52;8.15;;;5.20;99.90;;;;;;4997846;28;20031;-71
2022/04/24 04:41:36;;;;;;;17.50;7.55;;;5.20;99.90;;;;;;5015872;28;20022;-71
2022/04/24 04:44:01;;;;;;;20.38;7.10;;;5.20;99.90;;;;;;5016070;28;20034;-71
2022/04/24 04:46:27;;;;;;;21.40;7.75;;;5.20;99.90;;;;;;5016530;28;20490;-71
2022/04/24 04:48:53;;;;;;;19.42;8.65;;;5.20;99.90;;;;;;5016115;28;20033;-71
2022/04/24 04:51:18;;;;;;;18.20;7.68;;;5.30;99.90;;;;;;5002887;28;20513;-71
2022/04/24 04:53:44;;;;;;;17.60;7.70;;;5.40;99.90;;;;;;4996383;28;20034;-71
2022/04/24 04:56:09;;;;;;;16.00;7.63;;;5.40;99.90;;;;;;5014147;28;20025;-71
2022/04/24 04:58:35;;;;;;;15.13;6.85;;;5.50;99.90;;;;;;5016301;28;20022;-71
2022/04/24 05:01:00;;;;;;;17.05;7.50;;;5.50;99.90;;;;;;5011054;28;20033;-71
2022/04/24 05:03:26;;;;;;;18.95;7.47;;;5.60;99.90;;;;;;4996587;28;20022;-71
2022/04/24 05:05:52;;;;;;;17.35;7.18;;;5.70;99.90;;;;;;4996772;28;20467;-71
2022/04/24 05:08:18;;;;;;;12.27;5.82;;;5.80;99.90;;;;;;4996342;28;20030;-71
2022/04/24 05:10:43;;;;;;;13.05;7.05;;;5.80;99.90;;;;;;4996734;28;20089;-71
2022/04/24 05:13:10;;;;;;;16.30;6.32;;;5.90;99.90;;;;;;4996565;28;20030;-71
2022/04/24 05:15:35;;;;;;;12.00;6.60;;;6.00;99.90;;;;;;4996401;28;20054;-71
2022/04/24 05:18:01;;;;;;;19.48;6.93;;;6.10;99.90;;;;;;4995692;28;20058;-71
2022/04/24 05:20:26;;;;;;;13.75;6.45;;;6.10;99.90;;;;;;4996522;28;20022;-71
2022/04/24 05:23:05;;;;;;;11.68;6.53;;;6.20;99.90;;;;;;4996065;28;20030;-71
2022/04/24 05:25:32;;;;;;;12.60;6.07;;;6.30;99.90;;;;;;4996397;28;20055;-71
2022/04/24 05:27:57;;;;;;;15.02;6.57;;;6.50;99.90;;;;;;4995806;28;20022;-71
2022/04/24 05:30:23;;;;;;;9.90;5.95;;;6.60;99.90;;;;;;4996113;28;20433;-71
2022/04/24 05:32:51;;;;;;;16.05;6.45;;;6.70;99.90;;;;;;5019852;23;20045;-68
2022/04/24 05:35:16;;;;;;;11.15;5.53;;;6.80;99.90;;;;;;4995678;28;20435;-68
2022/04/24 05:37:45;;;;;;;9.40;5.57;;;7.00;99.90;;;;;;4995232;28;20113;-67
2022/04/24 05:40:11;;;;;;;9.13;4.88;;;7.10;99.90;;;;;;4995847;28;20033;-67
2022/04/24 05:42:53;;;;;;;15.00;5.95;;;7.20;99.90;;;;;;4995624;28;20061;-67
2022/04/24 05:45:22;;;;;;;10.27;5.90;;;7.30;99.90;;;;;;4976447;28;20031;-67
2022/04/24 05:47:51;;;;;;;10.93;5.40;;;7.50;99.90;;;;;;4975616;28;20081;-67
2022/04/24 05:50:17;;;;;;;10.48;5.25;;;7.60;99.90;;;;;;4975977;28;20039;-67
2022/04/24 05:52:43;;;;;;;9.23;5.15;;;7.70;99.90;;;;;;4976036;28;20475;-67
2022/04/24 05:55:09;;;;;;;13.35;5.50;;;7.80;99.90;;;;;;4975495;28;20026;-67
2022/04/24 05:57:36;;;;;;;9.65;5.38;;;7.90;99.90;;;;;;4975897;28;20042;-67
2022/04/24 06:00:09;;;;;;;9.25;4.93;;;8.00;99.90;;;;;;4975073;28;20026;-67
2022/04/24 06:02:35;;;;;;;12.40;5.65;;;8.10;99.90;;;;;;4976118;28;20018;-67
2022/04/24 06:05:01;;;;;;;7.85;5.15;;;8.20;99.90;;;;;;4975249;28;20397;-67
2022/04/24 06:07:26;;;;;;;14.40;5.55;;;8.30;99.90;;;;;;4975790;28;20470;-67
2022/04/24 06:09:52;;;;;;;8.48;5.00;;;8.50;99.90;;;;;;4975747;28;20089;-67
2022/04/24 06:12:18;;;;;;;6.05;4.43;;;8.60;99.90;;;;;;4975618;28;20026;-67
2022/04/24 06:14:43;;;;;;;8.70;4.53;;;8.70;99.90;;;;;;4975617;28;20030;-67
2022/04/24 06:17:09;;;;;;;16.33;4.80;;;8.80;99.90;;;;;;4975125;28;20062;-67
2022/04/24 06:19:34;;;;;;;11.40;4.95;;;9.00;99.90;;;;;;4975513;28;20027;-67
2022/04/24 06:22:00;;;;;;;7.38;4.90;;;9.00;99.90;;;;;;4975708;28;20030;-67
2022/04/24 06:24:26;;;;;;;9.00;4.72;;;9.10;99.90;;;;;;4975582;28;20030;-67
2022/04/24 06:26:52;;;;;;;8.10;4.78;;;9.10;99.90;;;;;;4974847;28;20023;-67
2022/04/24 06:29:18;;;;;;;9.35;4.25;;;9.30;99.90;;;;;;4975399;28;20077;-67
2022/04/24 06:31:43;;;;;;;11.43;4.93;;;9.30;99.90;;;;;;4975387;28;20030;-67
2022/04/24 06:34:10;;;;;;;19.02;5.95;;;9.40;99.90;;;;;;4974577;28;20038;-67
2022/04/24 06:36:36;;;;;;;6.15;4.38;;;9.50;99.90;;;;;;4975214;28;20530;-67
2022/04/24 06:39:02;;;;;;;9.02;4.43;;;9.60;99.90;;;;;;4975661;28;20042;-66
2022/04/24 06:41:28;;;;;;;7.38;4.13;;;9.70;99.90;;;;;;4974787;28;20030;-68
2022/04/24 06:43:54;;;;;;;7.93;4.03;;;9.70;99.90;;;;;;4975013;28;20470;-66
2022/04/24 06:46:20;;;;;;;7.57;4.55;;;9.80;99.90;;;;;;4974998;28;20033;-67
2022/04/24 06:48:45;;;;;;;10.05;3.72;;;9.90;99.90;;;;;;4975068;28;20035;-67
2022/04/24 06:51:11;;;;;;;14.88;3.60;;;10.10;99.90;;;;;;4974979;28;20027;-67
2022/04/24 06:53:38;;;;;;;6.35;3.70;;;10.10;99.90;;;;;;4974379;28;20102;-67
2022/04/24 06:56:04;;;;;;;6.50;3.50;;;10.30;99.90;;;;;;4974928;28;20045;-68
2022/04/24 06:58:30;;;;;;;5.13;3.38;;;10.40;99.90;;;;;;4974819;28;20039;-68
2022/04/24 07:00:56;;;;;;;10.63;4.50;;;10.50;99.90;;;;;;4974756;28;20038;-67
2022/04/24 07:03:22;;;;;;;6.95;3.95;;;10.60;99.90;;;;;;4974923;28;20059;-67
2022/04/24 07:05:48;;;;;;;6.78;3.58;;;10.70;99.90;;;;;;4974322;28;20073;-67
2022/04/24 07:08:14;;;;;;;6.45;3.65;;;10.90;99.90;;;;;;4974732;28;20372;-67
2022/04/24 07:10:40;;;;;;;6.28;3.17;;;11.00;99.90;;;;;;4974594;28;20034;-67
2022/04/24 07:13:06;;;;;;;6.25;3.55;;;11.10;99.90;;;;;;4974880;28;20089;-67
2022/04/24 07:15:34;;;;;;;4.43;3.22;;;11.10;99.90;;;;;;4974978;28;20523;-66
2022/04/24 07:18:00;;;;;;;5.25;2.88;;;11.00;99.90;;;;;;4974677;28;20504;-66
2022/04/24 07:20:27;;;;;;;15.88;3.58;;;11.10;99.90;;;;;;4974070;28;20031;-67
2022/04/24 07:23:01;;;;;;;8.15;3.50;;;11.20;99.90;;;;;;4974809;28;20023;-67
2022/04/24 07:25:40;;;;;;;6.90;3.60;;;11.40;99.90;;;;;;4974681;28;20101;-67
2022/04/24 07:28:16;;;;;;;6.80;3.08;;;11.50;99.90;;;;;;4974863;28;20491;-67
2022/04/24 07:30:42;;;;;;;8.77;3.22;;;11.70;99.90;;;;;;4974859;28;20101;-67
2022/04/24 07:33:08;;;;;;;4.68;2.88;;;11.90;99.90;;;;;;4973823;28;20030;-67
2022/04/24 07:35:35;;;;;;;4.68;3.30;;;12.00;99.90;;;;;;4974566;28;20562;-67
2022/04/24 07:38:01;;;;;;;8.15;3.28;;;11.90;99.90;;;;;;4975063;28;20078;-67
2022/04/24 07:40:29;;;;;;;9.70;3.58;;;12.00;99.90;;;;;;4974380;28;20027;-67
2022/04/24 07:42:59;;;;;;;4.47;3.17;;;12.10;99.90;;;;;;4974354;28;20019;-67
2022/04/24 07:45:30;;;;;;;7.03;2.67;;;12.10;99.90;;;;;;4974419;28;20049;-67
2022/04/24 07:47:57;;;;;;;13.75;4.65;;;12.10;99.90;;;;;;4974056;28;20027;-67
2022/04/24 07:50:27;;;;;;;9.75;3.00;;;12.00;99.90;;;;;;4973147;28;20027;-67
2022/04/24 07:52:53;;;;;;;3.58;2.60;;;12.00;99.90;;;;;;4975128;28;20061;-67
2022/04/24 07:55:22;;;;;;;9.80;3.33;;;12.10;99.90;;;;;;4974282;28;20027;-67
2022/04/24 07:57:49;;;;;;;4.68;2.95;;;12.40;99.90;;;;;;4974284;28;20451;-66
2022/04/24 08:00:16;;;;;;;4.45;2.20;;;12.50;99.90;;;;;;4974451;28;20113;-66
2022/04/24 08:03:08;;;;;;;12.10;2.63;;;12.80;99.90;;;;;;4973727;28;20023;-67
2022/04/24 08:05:35;;;;;;;7.15;2.42;;;12.80;99.90;;;;;;4970409;28;20391;-67
2022/04/24 08:08:03;;;;;;;4.10;2.92;;;12.90;99.90;;;;;;4974198;28;20026;-67
2022/04/24 08:10:31;;;;;;;6.50;2.97;;;13.00;99.90;;;;;;4974073;28;20514;-67
2022/04/24 08:12:57;;;;;;;3.67;2.95;;;13.00;99.90;;;;;;4974083;28;20391;-67
2022/04/24 08:15:23;;;;;;;4.32;2.30;;;13.10;99.90;;;;;;4973664;28;20034;-67
2022/04/24 08:17:49;;;;;;;3.65;2.38;;;13.10;99.90;;;;;;4974391;28;20406;-67
2022/04/24 08:20:16;;;;;;;3.95;2.15;;;13.30;99.90;;;;;;4974038;28;20106;-67
2022/04/24 08:22:47;;;;;;;4.80;2.63;;;13.40;99.90;;;;;;4974264;28;20077;-67
2022/04/24 08:25:16;;;;;;;5.32;2.85;;;13.70;99.90;;;;;;4977750;28;20026;-67
2022/04/24 08:27:42;;;;;;;4.03;2.60;;;13.80;99.90;;;;;;4977191;28;20092;-67
2022/04/24 08:30:09;;;;;;;9.13;2.50;;;13.70;99.90;;;;;;4977830;28;20530;-67
2022/04/24 08:32:36;;;;;;;6.65;3.10;;;13.70;99.90;;;;;;4977482;28;20039;-67
2022/04/24 08:35:03;;;;;;;8.02;2.80;;;13.80;99.90;;;;;;4976279;28;20471;-67
2022/04/24 08:37:29;;;;;;;5.70;2.40;;;13.60;99.90;;;;;;4977245;28;20483;-67
2022/04/24 08:39:54;;;;;;;8.35;3.58;;;13.40;99.90;;;;;;4977481;28;20023;-67
2022/04/24 08:42:23;;;;;;;5.47;3.33;;;13.30;99.90;;;;;;4977144;28;20027;-67
2022/04/24 08:44:49;;;;;;;5.80;2.63;;;13.40;99.90;;;;;;4977190;28;20023;-67
2022/04/24 08:47:16;;;;;;;4.80;2.67;;;13.40;99.90;;;;;;4977571;28;20506;-68
2022/04/24 08:49:42;;;;;;;9.15;3.60;;;13.60;99.90;;;;;;4977314;28;20062;-67
2022/04/24 08:52:09;;;;;;;3.50;2.45;;;13.90;99.90;;;;;;4976579;28;20026;-67
2022/04/24 08:54:39;;;;;;;3.97;2.20;;;14.00;99.90;;;;;;4976943;28;20063;-67
2022/04/24 08:57:04;;;;;;;6.80;2.10;;;14.00;99.90;;;;;;4977080;28;20506;-67
2022/04/24 08:59:30;;;;;;;8.20;2.70;;;14.00;99.90;;;;;;4977001;28;20035;-67
2022/04/24 09:01:59;;;;;;;5.80;3.03;;;14.00;99.90;;;;;;4976992;28;20030;-67
2022/04/24 09:04:26;;;;;;;7.30;2.80;;;14.20;99.90;;;;;;4976884;28;20019;-67
2022/04/24 09:06:59;;;;;;;5.50;2.42;;;14.30;99.90;;;;;;4976471;28;20106;-67
2022/04/24 09:09:25;;;;;;;6.43;2.78;;;14.50;99.90;;;;;;4977196;28;20518;-67
2022/04/24 09:11:51;;;;;;;5.55;2.35;;;14.90;99.90;;;;;;4976832;28;20037;-67
2022/04/24 09:14:20;;;;;;;7.10;2.88;;;14.80;99.90;;;;;;4976684;28;20022;-67
2022/04/24 09:16:49;;;;;;;5.63;2.47;;;14.90;99.90;;;;;;4976733;28;20102;-66
2022/04/24 09:19:23;;;;;;;8.43;2.08;;;14.80;99.90;;;;;;4976576;28;20031;-66
2022/04/24 09:21:49;;;;;;;;;;;14.80;99.90;;;;;;4977004;28;20045;-67
2022/04/24 09:24:15;;;;;;;3.58;2.05;;;14.90;99.90;;;;;;4976666;28;19905;-66
2022/04/24 09:26:55;;;;;;;4.45;1.67;;;15.00;99.90;;;;;;4976577;28;20583;-66
2022/04/24 09:29:22;;;;;;;3.90;2.17;;;15.30;99.90;;;;;;4976737;28;20031;-66
2022/04/24 09:31:49;;;;;;;6.78;2.38;;;15.40;99.90;;;;;;4976018;28;20022;-66
2022/04/24 09:34:17;;;;;;;8.15;2.83;;;15.50;99.90;;;;;;4975565;28;20035;-66
2022/04/24 09:36:43;;;;;;;8.48;3.03;;;15.60;99.90;;;;;;4976240;28;20062;-66
2022/04/24 09:39:09;;;;;;;7.60;2.20;;;15.40;99.90;;;;;;4975118;28;20027;-67
2022/04/24 09:41:37;;;;;;;7.40;2.28;;;15.50;99.90;;;;;;4975086;28;20023;-67
2022/04/24 09:44:14;;;;;;;8.00;2.50;;;15.70;99.90;;;;;;4976112;28;20077;-67
2022/04/24 09:46:40;;;;;;;5.38;2.38;;;15.70;99.90;;;;;;4975957;28;20026;-67
2022/04/24 09:49:08;;;;;;;5.35;1.92;;;15.70;99.90;;;;;;4976318;28;20026;-67
2022/04/24 09:51:44;;;;;;;4.85;3.13;;;15.80;99.90;;;;;;4976320;28;20037;-67
2022/04/24 09:54:10;;;;;;;6.75;2.45;;;15.70;99.90;;;;;;4976144;28;20495;-67
2022/04/24 09:56:36;;;;;;;9.88;2.42;;;15.80;99.90;;;;;;4976137;28;20050;-67
2022/04/24 09:59:02;;;;;;;4.18;2.03;;;16.10;99.90;;;;;;4975455;28;20050;-67
2022/04/24 10:01:27;;;;;;;9.38;2.40;;;16.30;99.90;;;;;;4976098;28;20356;-67
2022/04/24 10:03:54;;;;;;;7.70;2.50;;;16.40;99.90;;;;;;4976037;28;20033;-67
2022/04/24 10:06:22;;;;;;;16.20;3.10;;;16.40;99.90;;;;;;4975993;28;20097;-67
2022/04/24 10:08:50;;;;;;;10.23;2.33;;;16.60;99.90;;;;;;4975406;28;20030;-67
2022/04/24 10:11:16;;;;;;;5.07;2.25;;;17.00;99.90;;;;;;4975757;28;20483;-67
2022/04/24 10:13:45;;;;;;;6.28;2.20;;;17.10;99.90;;;;;;4975642;28;20027;-67
2022/04/24 10:16:29;;;;;;;5.20;2.10;;;17.40;99.90;;;;;;4975677;28;20077;-67
2022/04/24 10:19:25;;;;;;;14.15;2.60;;;17.60;99.90;;;;;;4975820;28;20023;-67
2022/04/24 10:21:55;;;;;;;3.35;2.33;;;17.70;99.90;;;;;;4975529;28;20098;-67
2022/04/24 10:24:21;;;;;;;6.20;2.58;;;17.50;99.90;;;;;;4975646;28;20050;-68
2022/04/24 10:27:03;;;;;;;4.10;2.35;;;17.30;99.90;;;;;;4975720;28;20063;-68
2022/04/24 10:29:29;;;;;;;7.38;2.72;;;17.40;99.90;;;;;;4975393;28;20023;-68
2022/04/24 10:31:55;;;;;;;3.67;2.55;;;17.30;99.90;;;;;;4974886;28;20105;-68
2022/04/24 10:34:22;;;;;;;5.50;2.38;;;17.20;99.90;;;;;;4975160;28;20035;-68
2022/04/24 10:36:57;;;;;;;5.00;2.38;;;17.40;99.90;;;;;;4975303;28;20046;-68
2022/04/24 10:39:29;;;;;;;7.32;2.60;;;17.50;99.90;;;;;;4974854;28;20030;-68
2022/04/24 10:41:57;;;;;;;5.80;2.42;;;17.50;99.90;;;;;;4975389;28;20126;-68
2022/04/24 10:44:23;;;;;;;2.90;2.13;;;17.30;99.90;;;;;;4975079;28;20395;-68
2022/04/24 10:46:50;;;;;;;5.25;2.45;;;17.30;99.90;;;;;;4975016;28;20018;-68
2022/04/24 10:49:18;;;;;;;3.67;2.25;;;16.80;99.90;;;;;;4975298;28;20033;-67
2022/04/24 10:52:04;;;;;;;4.18;2.38;;;17.00;99.90;;;;;;4974718;28;20034;-66
2022/04/24 10:54:35;;;;;;;4.07;2.40;;;17.30;99.90;;;;;;4974442;28;20045;-66
2022/04/24 10:57:01;;;;;;;5.28;2.75;;;17.20;99.90;;;;;;4975480;28;20038;-66
2022/04/24 10:59:41;;;;;;;5.00;2.42;;;17.00;99.90;;;;;;4974785;28;20026;-66
2022/04/24 11:02:09;;;;;;;8.50;3.35;;;16.70;99.90;;;;;;4974478;28;20069;-66
2022/04/24 11:04:39;;;;;;;4.30;2.80;;;16.00;99.90;;;;;;4974657;28;20025;-66
2022/04/24 11:07:05;;;;;;;4.00;2.88;;;16.10;99.90;;;;;;4975140;28;20464;-66
2022/04/24 11:09:33;;;;;;;8.23;3.30;;;16.10;99.90;;;;;;4974775;28;20031;-66
2022/04/24 11:12:01;;;;;;;7.45;3.78;;;16.20;99.90;;;;;;4974244;28;20026;-66
2022/04/24 11:14:28;;;;;;;5.45;2.65;;;15.90;99.90;;;;;;4974921;28;20031;-66
2022/04/24 11:17:02;;;;;;;6.93;2.67;;;15.90;99.90;;;;;;4974891;28;20038;-66
2022/04/24 11:19:28;;;;;;;;;;;15.90;99.90;;;;;;4975047;28;20106;-66
2022/04/24 11:21:59;;;;;;;4.82;2.95;;;15.70;99.90;;;;;;4974641;28;20387;-66
2022/04/24 11:24:29;;;;;;;6.20;2.58;;;15.70;99.90;;;;;;4974071;28;20050;-66
2022/04/24 11:26:57;;;;;;;12.38;3.50;;;15.60;99.90;;;;;;4974375;28;20411;-67
2022/04/24 11:29:25;;;;;;;7.47;2.97;;;16.20;99.90;;;;;;4974808;28;20031;-66
2022/04/24 11:31:55;;;;;;;8.13;3.20;;;17.00;99.90;;;;;;4974562;28;20081;-67
2022/04/24 11:34:23;;;;;;;14.45;3.03;;;17.40;99.90;;;;;;5022377;23;20401;-75
2022/04/24 11:36:54;;;;;;;4.13;2.83;;;17.30;99.90;;;;;;5010085;28;20413;-74
2022/04/24 11:39:20;;;;;;;4.38;3.33;;;17.10;99.90;;;;;;4997547;28;20026;-74
2022/04/24 11:41:46;;;;;;;4.70;3.00;;;16.00;99.90;;;;;;4997321;28;20073;-75
2022/04/24 11:52:36;;;;;;;11.98;4.00;;;15.70;99.90;;;;;;5014538;28;20040;-74
2022/04/24 11:55:13;;;;;;;10.20;3.00;;;16.60;99.90;;;;;;5014049;28;20076;-74
2022/04/24 11:57:38;;;;;;;4.57;3.25;;;17.40;99.90;;;;;;5013907;28;20029;-74
2022/04/24 12:00:08;;;;;;;9.32;3.40;;;17.90;99.90;;;;;;5017814;28;20022;-74
2022/04/24 12:02:35;;;;;;;12.07;3.08;;;18.10;99.90;;;;;;5018540;28;20092;-74
2022/04/24 12:05:01;;;;;;;7.15;3.08;;;18.90;99.90;;;;;;5017808;28;20029;-76
2022/04/24 12:07:31;;;;;;;7.38;3.00;;;19.10;99.90;;;;;;5016543;28;20168;-75
2022/04/24 12:10:02;;;;;;;6.65;2.92;;;19.60;99.90;;;;;;5017725;28;20426;-76
2022/04/24 12:12:28;;;;;;;5.30;3.20;;;19.20;99.90;;;;;;5017083;28;20037;-74
2022/04/24 12:14:54;;;;;;;7.22;3.15;;;19.50;99.90;;;;;;5017353;28;20452;-75
2022/04/24 12:17:22;;;;;;;6.70;3.33;;;19.70;99.90;;;;;;5017712;28;20137;-75
2022/04/24 12:19:55;;;;;;;8.00;3.83;;;20.10;99.90;;;;;;5016234;28;20033;-75
2022/04/24 12:22:34;;;;;;;9.05;3.55;;;20.30;99.90;;;;;;5017074;28;20029;-74
2022/04/24 12:25:08;;;;;;;10.73;3.10;;;20.20;99.90;;;;;;5017662;28;20018;-74
2022/04/24 12:27:34;;;;;;;7.47;3.40;;;20.50;99.90;;;;;;5017314;28;20018;-74
2022/04/24 12:30:03;;;;;;;12.20;3.45;;;20.80;99.90;;;;;;5017539;28;20080;-75
2022/04/24 12:32:28;;;;;;;8.35;4.35;;;20.10;98.40;;;;;;5017162;28;20030;-75
2022/04/24 12:34:54;;;;;;;14.90;3.45;;;19.70;99.90;;;;;;5016571;28;20029;-74
2022/04/24 12:37:30;;;;;;;14.13;3.63;;;19.30;99.90;;;;;;5017355;28;20037;-75
2022/04/24 12:39:57;;;;;;;6.88;3.38;;;18.70;99.90;;;;;;5017229;28;20022;-75
2022/04/24 12:42:23;;;;;;;8.32;3.22;;;18.80;99.90;;;;;;5017225;28;20026;-75
2022/04/24 12:44:50;;;;;;;7.63;3.20;;;19.00;99.90;;;;;;5016343;28;20022;-74
2022/04/24 12:47:16;;;;;;;9.02;3.17;;;19.60;99.90;;;;;;5016929;28;20014;-74
2022/04/24 12:49:44;;;;;;;14.80;3.25;;;19.80;99.90;;;;;;5015366;28;20371;-74
2022/04/24 12:52:09;;;;;;;7.22;3.38;;;20.00;99.90;;;;;;5016437;28;20105;-73
2022/04/24 12:54:35;;;;;;;6.13;3.40;;;19.90;99.40;;;;;;5016690;28;20045;-73
2022/04/24 12:57:03;;;;;;;6.45;3.15;;;19.40;99.60;;;;;;5016807;28;20088;-72